หน้าหลัก
METAR-TAF:

METAR-TAF

ท่าอากาศยาน :

Vereeniging, แอฟริกาใต้

ละติจูด: 26-34-29S, ลองจิจูด: 027-57-45E, ความสูง: 1483 ม.

การสังเกตสภาพอากาศปัจจุบัน

รายงานได้ทำขึ้นเมื่อ 20 นาทีที่แล้ว ณ เวลา 11:00 UTC
ลม 7 นอตจากใต้
อุณหภูมิ 24°C
ความชื้น 24%
ความกดอากาศ 1028 hPa

METAR: FAVV 181100Z AUTO 17007KT //// // ////// 24/02 Q1028

เวลา: 13:20 (11:20 UTC)


TAF: หายไป

สังเกตการณ์สภาพอากาศและพยากรณ์อากาศของสนามบินมากกว่า 4000 แห่ง (รายงาน METAR และ TAF).

สถานีที่ดูได้จะแสดงไว้ด้วยจุดสีเหลืองและสีแดงบนแผนที่.

เลื่อนเมาส์ไปเหนือจุดเพื่อดูชื่อสถานี.

แล้วคลิกเพื่อดูสังเกตการณ์และการพยากรณ์สภาพอากาศ.

ในการเปลี่ยนแผนที่: คลิกที่ปุ่มสีเขียวที่มีกากบาทสีดำเพื่อซูมเข้า; ที่ปุ่มสีเขียวที่มีขีดเพื่อซูมออก; หรือที่ลูกศรสีเขียวเพื่อไปยังแผนที่ที่อยู่ติดกัน.


METAR-TAF: